Terminal Aerodrome Forecast
Issued by NWS

Current Version | Previous Version | Graphics & Text | Print | Product List | Glossary On
Versions: 1 2 3 4 5 6 7 8 9 10 11 12 13 14 15 16 17 18 19 20 21 22 23 24 25 26 27 28 29 30 31 32 33 34 35 36 37 38 39 40
000
FTUS41 KRNK 152341
TAFLWB
TAF
KLWB 152341Z 1600/1624 00000KT P6SM OVC110
     FM160500 06007KT P6SM OVC035
     FM161700 12006KT P6SM -SHRA OVC025
     FM162200 14004KT P6SM -SHRA OVC015=

USA.gov is the U.S. government's official web portal to all federal, state and local government web resources and services.